createdAt,value
2023-03-06T00:02:42.040Z,3.13
2023-03-06T00:06:07.557Z,3.18
2023-03-06T00:09:11.798Z,3.28
2023-03-06T00:12:15.235Z,3.24
2023-03-06T00:15:28.495Z,3.16
2023-03-06T00:18:36.051Z,3.33
2023-03-06T00:21:48.239Z,3.38
2023-03-06T00:25:05.216Z,3.28
2023-03-06T00:28:14.941Z,3.35
2023-03-06T00:31:31.865Z,3.43
2023-03-06T00:34:53.122Z,3.42
2023-03-06T00:38:04.290Z,3.33
2023-03-06T00:41:14.214Z,3.39
2023-03-06T00:44:18.252Z,3.41
2023-03-06T00:47:26.645Z,3.38
2023-03-06T00:50:30.473Z,3.31
2023-03-06T00:53:44.191Z,3.13
2023-03-06T00:56:49.158Z,3.18
2023-03-06T00:59:53.778Z,3.13
2023-03-06T01:02:56.543Z,3.12
2023-03-06T01:06:05.092Z,3.14
2023-03-06T01:09:14.670Z,3.08
2023-03-06T01:12:23.485Z,3.06
2023-03-06T01:15:54.095Z,3.10
2023-03-06T01:18:57.010Z,3.27
2023-03-06T01:22:06.525Z,3.15
2023-03-06T01:25:11.398Z,3.15
2023-03-06T01:28:21.209Z,3.15
2023-03-06T01:31:24.879Z,3.10
2023-03-06T01:34:47.534Z,3.10
2023-03-06T01:37:59.004Z,3.38
2023-03-06T01:41:05.879Z,3.35
2023-03-06T01:44:15.234Z,3.31
2023-03-06T01:47:25.707Z,3.32
2023-03-06T01:50:28.608Z,3.40
2023-03-06T01:53:34.902Z,3.40
2023-03-06T01:56:41.053Z,3.41
2023-03-06T01:59:55.546Z,3.28
2023-03-06T02:03:14.118Z,3.27
2023-03-06T02:06:22.045Z,3.25
2023-03-06T02:09:30.986Z,3.19
2023-03-06T02:12:42.305Z,3.11
2023-03-06T02:15:50.442Z,3.12
2023-03-06T02:19:21.756Z,3.18
2023-03-06T02:22:30.039Z,3.25
2023-03-06T02:25:40.121Z,3.18
2023-03-06T02:28:43.280Z,3.09
2023-03-06T02:31:49.239Z,3.07
2023-03-06T02:35:03.153Z,3.17
2023-03-06T02:38:16.088Z,3.11
2023-03-06T02:41:18.732Z,3.20
2023-03-06T02:44:27.665Z,3.22
2023-03-06T02:47:47.542Z,3.20
2023-03-06T02:50:50.897Z,3.24
2023-03-06T02:53:58.487Z,3.26
2023-03-06T02:57:03.361Z,3.37
2023-03-06T03:00:10.265Z,3.43
2023-03-06T03:03:21.337Z,3.43
2023-03-06T03:06:35.014Z,3.37
2023-03-06T03:09:37.409Z,3.40
2023-03-06T03:12:40.974Z,3.35
2023-03-06T03:16:20.076Z,3.38
2023-03-06T03:19:23.608Z,3.31
2023-03-06T03:22:33.499Z,3.33
2023-03-06T03:25:38.355Z,3.39
2023-03-06T03:28:47.322Z,3.43
2023-03-06T03:31:56.754Z,3.42
2023-03-06T03:35:01.409Z,3.33
2023-03-06T03:38:15.711Z,3.39
2023-03-06T03:41:20.612Z,3.38
2023-03-06T03:44:27.279Z,3.37
2023-03-06T03:47:32.261Z,3.41
2023-03-06T03:50:42.224Z,3.41
2023-03-06T03:53:48.612Z,3.35
2023-03-06T03:56:55.523Z,3.43
2023-03-06T04:00:07.056Z,3.33
2023-03-06T04:03:37.295Z,3.45
2023-03-06T04:06:45.508Z,3.52
2023-03-06T04:09:57.924Z,3.44
2023-03-06T04:13:02.812Z,3.39
2023-03-06T04:16:05.543Z,3.42
2023-03-06T04:19:09.820Z,3.45
2023-03-06T04:22:18.269Z,3.40
2023-03-06T04:25:21.725Z,3.40
2023-03-06T04:28:29.749Z,3.42
2023-03-06T04:31:35.002Z,3.46
2023-03-06T04:34:41.065Z,3.50
2023-03-06T04:37:45.750Z,3.24
2023-03-06T04:40:59.385Z,3.22
2023-03-06T04:44:09.400Z,3.31
2023-03-06T04:47:12.341Z,3.33
2023-03-06T04:50:21.053Z,3.35
2023-03-06T04:53:27.387Z,3.35
2023-03-06T04:56:31.008Z,3.32
2023-03-06T04:59:43.148Z,3.22
2023-03-06T05:02:51.150Z,3.13
2023-03-06T05:06:00.306Z,3.09
2023-03-06T05:09:04.366Z,3.22
2023-03-06T05:12:24.059Z,3.20
2023-03-06T05:15:26.330Z,3.24
2023-03-06T05:18:37.413Z,3.14
2023-03-06T05:21:44.976Z,3.08
2023-03-06T05:24:50.079Z,3.07
2023-03-06T05:27:54.922Z,3.03
2023-03-06T05:30:57.190Z,3.06
2023-03-06T05:34:05.643Z,3.10
2023-03-06T05:37:17.733Z,3.18
2023-03-06T05:40:32.446Z,3.11
2023-03-06T05:43:37.668Z,3.09
2023-03-06T05:46:47.015Z,3.10
2023-03-06T05:49:52.598Z,3.08
2023-03-06T05:52:54.918Z,2.95
2023-03-06T05:56:15.771Z,2.92
2023-03-06T05:59:25.007Z,2.88
2023-03-06T06:02:32.320Z,2.84
2023-03-06T06:05:44.899Z,2.84
2023-03-06T06:08:59.863Z,2.85
2023-03-06T06:12:05.191Z,2.84
2023-03-06T06:15:09.787Z,2.63
2023-03-06T06:18:13.129Z,2.72
2023-03-06T06:21:18.985Z,2.74
2023-03-06T06:24:35.072Z,2.80
2023-03-06T06:27:42.290Z,2.80
2023-03-06T06:30:55.400Z,2.78
2023-03-06T06:34:03.682Z,2.78
2023-03-06T06:37:17.140Z,2.89
2023-03-06T06:40:23.904Z,2.89
2023-03-06T06:43:31.287Z,2.86
2023-03-06T06:49:58.493Z,3.01
2023-03-06T06:53:21.777Z,3.08
2023-03-06T06:56:36.861Z,3.01
2023-03-06T06:59:48.212Z,3.21
2023-03-06T07:02:51.623Z,3.22
2023-03-06T07:05:58.205Z,3.08
2023-03-06T07:09:00.508Z,3.16
2023-03-06T07:12:10.449Z,3.22
2023-03-06T07:15:32.204Z,3.30
2023-03-06T07:18:37.969Z,3.36
2023-03-06T07:21:44.936Z,3.40
2023-03-06T07:24:47.521Z,3.24
2023-03-06T07:27:58.344Z,3.32
2023-03-06T07:31:43.389Z,3.62
2023-03-06T07:34:46.588Z,3.69
2023-03-06T07:37:51.931Z,3.58
2023-03-06T07:41:06.407Z,3.18
2023-03-06T07:44:20.639Z,2.98
2023-03-06T07:47:37.432Z,3.01
2023-03-06T07:50:59.665Z,2.97
2023-03-06T07:54:05.882Z,3.10
2023-03-06T07:57:11.127Z,3.19
2023-03-06T08:00:21.515Z,3.31
2023-03-06T08:03:23.748Z,3.45
2023-03-06T08:06:30.969Z,3.63
2023-03-06T08:09:43.651Z,3.54
2023-03-06T08:12:55.497Z,3.59
2023-03-06T08:16:02.696Z,3.70
2023-03-06T08:19:08.671Z,3.82
2023-03-06T08:22:26.540Z,3.77
2023-03-06T08:25:30.664Z,3.64
2023-03-06T08:28:38.304Z,3.54
2023-03-06T08:31:49.897Z,3.81
2023-03-06T08:34:52.697Z,3.91
2023-03-06T08:38:00.566Z,3.91
2023-03-06T08:41:20.445Z,3.81
2023-03-06T08:44:28.315Z,3.91
2023-03-06T08:47:30.734Z,4.20
2023-03-06T08:50:43.071Z,4.35
2023-03-06T08:53:56.066Z,4.12
2023-03-06T08:57:05.689Z,4.29
2023-03-06T09:00:10.332Z,4.60
2023-03-06T09:03:26.178Z,4.60
2023-03-06T09:06:38.172Z,4.36
2023-03-06T09:09:44.804Z,4.75
2023-03-06T09:12:56.609Z,4.06
2023-03-06T09:16:03.208Z,4.71
2023-03-06T09:19:17.436Z,5.22
2023-03-06T09:22:22.708Z,5.45
2023-03-06T09:25:34.465Z,5.27
2023-03-06T09:28:51.707Z,5.05
2023-03-06T09:31:56.465Z,5.69
2023-03-06T09:35:11.968Z,6.21
2023-03-06T09:38:28.293Z,6.57
2023-03-06T09:41:39.532Z,7.16
2023-03-06T09:45:03.295Z,7.25
2023-03-06T09:48:13.489Z,7.26
2023-03-06T09:51:37.055Z,7.06
2023-03-06T09:55:26.536Z,6.75
2023-03-06T09:59:01.621Z,7.29
2023-03-06T10:02:51.282Z,7.57
2023-03-06T10:06:33.032Z,7.63
2023-03-06T10:09:46.457Z,7.03
2023-03-06T10:13:06.682Z,7.18
2023-03-06T10:16:43.525Z,7.03
2023-03-06T10:19:48.597Z,6.61
2023-03-06T10:23:19.172Z,6.55
2023-03-06T10:26:34.907Z,6.98
2023-03-06T10:30:07.267Z,6.94
2023-03-06T10:33:36.451Z,6.34
2023-03-06T10:36:46.574Z,6.24
2023-03-06T10:40:17.205Z,6.00
2023-03-06T10:43:29.714Z,6.08
2023-03-06T10:46:49.653Z,6.27
2023-03-06T10:50:41.383Z,6.23
2023-03-06T10:53:53.463Z,5.95
2023-03-06T10:57:26.834Z,5.61
2023-03-06T11:00:43.483Z,5.46
2023-03-06T11:04:14.624Z,5.44
2023-03-06T11:07:28.606Z,5.74
2023-03-06T11:10:48.278Z,6.01
2023-03-06T11:13:58.822Z,6.05
2023-03-06T11:17:36.826Z,5.93
2023-03-06T11:20:53.035Z,6.08
2023-03-06T11:24:04.751Z,5.97
2023-03-06T11:27:35.956Z,6.05
2023-03-06T11:31:04.137Z,6.14
2023-03-06T11:34:55.274Z,6.19
2023-03-06T11:38:25.902Z,6.38
2023-03-06T11:42:10.960Z,6.48
2023-03-06T11:45:34.847Z,6.45
2023-03-06T11:48:48.241Z,6.20
2023-03-06T11:52:22.893Z,5.99
2023-03-06T11:55:32.083Z,5.99
2023-03-06T11:59:01.210Z,6.24
2023-03-06T12:02:25.027Z,6.34
2023-03-06T12:05:40.841Z,6.60
2023-03-06T12:09:16.859Z,6.54
2023-03-06T12:12:23.116Z,6.19
2023-03-06T12:16:20.684Z,6.17
2023-03-06T12:19:42.453Z,6.15
2023-03-06T12:23:18.087Z,6.07
2023-03-06T12:26:37.870Z,6.10
2023-03-06T12:29:52.258Z,6.03
2023-03-06T12:33:15.577Z,6.03
2023-03-06T12:36:34.272Z,6.20
2023-03-06T12:39:46.529Z,5.91
2023-03-06T12:43:09.159Z,5.92
2023-03-06T12:46:27.340Z,5.72
2023-03-06T12:49:40.035Z,5.81
2023-03-06T12:52:46.341Z,5.98
2023-03-06T12:55:58.691Z,5.90
2023-03-06T13:02:34.395Z,6.64
2023-03-06T13:06:02.092Z,6.65
2023-03-06T13:09:45.810Z,6.60
2023-03-06T13:13:48.139Z,6.26
2023-03-06T13:17:24.779Z,6.29
2023-03-06T13:20:35.031Z,6.15
2023-03-06T13:23:51.704Z,6.32
2023-03-06T13:27:03.097Z,6.27
2023-03-06T13:30:47.333Z,5.95
2023-03-06T13:33:58.563Z,5.91
2023-03-06T13:37:21.106Z,6.03
2023-03-06T13:40:31.891Z,6.13
2023-03-06T13:43:49.966Z,5.78
2023-03-06T13:47:14.201Z,5.88
2023-03-06T13:50:58.341Z,5.83
2023-03-06T13:54:16.213Z,6.09
2023-03-06T13:57:23.395Z,6.34
2023-03-06T14:01:06.549Z,6.13
2023-03-06T14:04:35.770Z,6.19
2023-03-06T14:07:46.320Z,6.19
2023-03-06T14:11:04.453Z,5.99
2023-03-06T14:14:11.579Z,6.00
2023-03-06T14:17:33.365Z,6.01
2023-03-06T14:20:43.963Z,6.14
2023-03-06T14:24:03.376Z,6.01
2023-03-06T14:27:21.543Z,5.98
2023-03-06T14:30:36.872Z,5.58
2023-03-06T14:33:51.765Z,5.73
2023-03-06T14:37:23.831Z,5.61
2023-03-06T14:40:35.686Z,5.72
2023-03-06T14:43:38.434Z,5.90
2023-03-06T14:47:14.914Z,5.90
2023-03-06T14:50:41.068Z,5.49
2023-03-06T14:53:45.982Z,5.40
2023-03-06T14:57:01.223Z,5.63
2023-03-06T15:00:12.364Z,5.75
2023-03-06T15:03:24.411Z,5.66
2023-03-06T15:06:54.024Z,5.71
2023-03-06T15:10:01.727Z,5.64
2023-03-06T15:13:23.047Z,5.59
2023-03-06T15:16:32.129Z,5.54
2023-03-06T15:19:39.406Z,5.43
2023-03-06T15:22:51.070Z,5.34
2023-03-06T15:26:04.250Z,5.32
2023-03-06T15:29:10.733Z,5.34
2023-03-06T15:32:35.508Z,5.22
2023-03-06T15:35:52.555Z,5.05
2023-03-06T15:39:02.620Z,4.98
2023-03-06T15:42:08.073Z,5.03
2023-03-06T15:45:19.502Z,5.04
2023-03-06T15:48:22.939Z,5.05
2023-03-06T15:51:35.199Z,4.98
2023-03-06T15:54:42.804Z,4.88
2023-03-06T15:58:00.127Z,4.91
2023-03-06T16:01:05.424Z,4.87
2023-03-06T16:04:13.712Z,4.85
2023-03-06T16:07:16.922Z,4.78
2023-03-06T16:10:34.140Z,4.73
2023-03-06T16:13:41.154Z,4.67
2023-03-06T16:16:44.714Z,4.68
2023-03-06T16:19:51.883Z,4.66
2023-03-06T16:23:00.019Z,4.67
2023-03-06T16:26:24.267Z,4.63
2023-03-06T16:29:33.756Z,4.64
2023-03-06T16:32:39.102Z,4.54
2023-03-06T16:35:48.855Z,4.56
2023-03-06T16:39:04.265Z,4.55
2023-03-06T16:42:18.358Z,4.59
2023-03-06T16:45:29.179Z,4.54
2023-03-06T16:48:34.575Z,4.56
2023-03-06T16:51:39.716Z,4.51
2023-03-06T16:54:45.803Z,4.46
2023-03-06T16:57:52.684Z,4.51
2023-03-06T17:01:01.757Z,4.44
2023-03-06T17:04:06.905Z,4.43
2023-03-06T17:07:16.245Z,4.41
2023-03-06T17:10:27.283Z,4.33
2023-03-06T17:13:30.695Z,4.30
2023-03-06T17:16:41.984Z,4.31
2023-03-06T17:19:56.592Z,4.37
2023-03-06T17:23:10.502Z,4.12
2023-03-06T17:26:19.686Z,4.08
2023-03-06T17:29:23.750Z,4.06
2023-03-06T17:32:26.757Z,4.05
2023-03-06T17:35:33.619Z,4.09
2023-03-06T17:38:41.605Z,4.13
2023-03-06T17:41:52.742Z,4.14
2023-03-06T17:44:58.814Z,4.13
2023-03-06T17:48:09.463Z,4.12
2023-03-06T17:51:28.589Z,4.12
2023-03-06T17:54:49.744Z,4.11
2023-03-06T17:57:57.911Z,4.09
2023-03-06T18:01:02.736Z,4.05
2023-03-06T18:04:05.164Z,4.07
2023-03-06T18:07:10.337Z,4.02
2023-03-06T18:13:40.066Z,3.98
2023-03-06T18:16:45.071Z,4.02
2023-03-06T18:19:55.707Z,4.09
2023-03-06T18:23:10.609Z,4.08
2023-03-06T18:26:38.759Z,4.15
2023-03-06T18:29:43.933Z,4.20
2023-03-06T18:32:54.984Z,4.19
2023-03-06T18:36:02.066Z,4.20
2023-03-06T18:39:23.580Z,4.20
2023-03-06T18:42:28.853Z,4.20
2023-03-06T18:45:37.649Z,4.09
2023-03-06T18:49:13.071Z,4.09
2023-03-06T18:52:26.216Z,4.12
2023-03-06T18:55:38.572Z,4.11
2023-03-06T18:58:56.240Z,4.02
2023-03-06T19:02:01.490Z,4.02
2023-03-06T19:05:10.249Z,3.98
2023-03-06T19:08:15.569Z,4.02
2023-03-06T19:11:32.217Z,4.06
2023-03-06T19:14:41.920Z,4.06
2023-03-06T19:17:50.360Z,4.04
2023-03-06T19:21:02.496Z,3.95
2023-03-06T19:24:14.471Z,3.84
2023-03-06T19:27:22.663Z,3.76
2023-03-06T19:30:28.157Z,3.77
2023-03-06T19:33:40.500Z,3.70
2023-03-06T19:36:45.381Z,3.72
2023-03-06T19:39:53.218Z,3.58
2023-03-06T19:43:05.760Z,3.50
2023-03-06T19:46:20.005Z,3.58
2023-03-06T19:49:33.389Z,3.67
2023-03-06T19:52:40.008Z,3.61
2023-03-06T19:55:49.191Z,3.50
2023-03-06T19:59:00.991Z,3.46
2023-03-06T20:02:15.929Z,3.32
2023-03-06T20:05:37.598Z,3.24
2023-03-06T20:08:53.250Z,3.19
2023-03-06T20:12:00.211Z,3.17
2023-03-06T20:15:02.694Z,3.21
2023-03-06T20:18:13.079Z,3.26
2023-03-06T20:21:23.368Z,3.33
2023-03-06T20:24:31.608Z,3.33
2023-03-06T20:27:42.726Z,3.34
2023-03-06T20:30:56.913Z,3.37
2023-03-06T20:34:23.150Z,3.44
2023-03-06T20:37:45.517Z,3.44
2023-03-06T20:40:50.251Z,3.56
2023-03-06T20:43:59.512Z,3.58
2023-03-06T20:47:04.697Z,3.52
2023-03-06T20:50:12.733Z,3.52
2023-03-06T20:53:22.071Z,3.43
2023-03-06T20:56:33.235Z,3.51
2023-03-06T20:59:48.093Z,3.39
2023-03-06T21:03:01.601Z,3.35
2023-03-06T21:06:06.220Z,3.54
2023-03-06T21:09:13.048Z,3.43
2023-03-06T21:12:29.679Z,3.47
2023-03-06T21:15:58.174Z,3.20
2023-03-06T21:19:13.989Z,2.97
2023-03-06T21:22:30.275Z,3.15
2023-03-06T21:25:41.234Z,2.97
2023-03-06T21:28:55.319Z,3.11
2023-03-06T21:32:06.454Z,3.20
2023-03-06T21:35:25.522Z,3.33
2023-03-06T21:38:34.680Z,3.34
2023-03-06T21:41:50.751Z,3.32
2023-03-06T21:44:56.941Z,3.26
2023-03-06T21:48:05.936Z,3.26
2023-03-06T21:51:16.959Z,3.22
2023-03-06T21:54:33.390Z,3.15
2023-03-06T21:57:38.757Z,3.15
2023-03-06T22:00:52.769Z,3.16
2023-03-06T22:04:00.197Z,3.06
2023-03-06T22:07:10.163Z,3.04
2023-03-06T22:10:14.298Z,3.05
2023-03-06T22:13:23.358Z,2.97
2023-03-06T22:16:25.717Z,2.91
2023-03-06T22:19:29.900Z,2.92
2023-03-06T22:22:36.824Z,2.93
2023-03-06T22:25:41.517Z,2.86
2023-03-06T22:28:43.828Z,2.90
2023-03-06T22:31:48.511Z,2.88
2023-03-06T22:35:01.017Z,2.86
2023-03-06T22:38:06.232Z,2.86
2023-03-06T22:41:23.012Z,2.95
2023-03-06T22:44:42.734Z,2.95
2023-03-06T22:47:55.199Z,2.89
2023-03-06T22:51:14.304Z,2.93
2023-03-06T22:54:26.320Z,2.95
2023-03-06T22:57:36.271Z,2.93
2023-03-06T23:00:46.859Z,2.89
2023-03-06T23:03:53.189Z,2.87
2023-03-06T23:07:11.359Z,2.84
2023-03-06T23:10:20.058Z,3.01
2023-03-06T23:13:52.554Z,2.77
2023-03-06T23:17:13.697Z,2.80
2023-03-06T23:20:41.302Z,2.77
2023-03-06T23:24:05.475Z,2.63
2023-03-06T23:27:10.448Z,2.58
2023-03-06T23:30:24.790Z,2.60
2023-03-06T23:33:40.190Z,2.58
2023-03-06T23:36:44.043Z,2.59
2023-03-06T23:39:52.718Z,2.64
2023-03-06T23:42:58.233Z,2.39
2023-03-06T23:46:06.261Z,2.38
2023-03-06T23:49:08.945Z,2.24
2023-03-06T23:52:13.813Z,2.10
2023-03-06T23:55:19.376Z,2.05
2023-03-06T23:58:35.662Z,2.05
